sensor_id;sensor_type;location;lat;lon;timestamp;temperature;humidity
64874;HTU21D;51367;45.204;38.576;2023-06-10T21:45:21;19.80;74.58
64874;HTU21D;51367;45.204;38.576;2023-06-10T21:47:47;19.82;74.91
64874;HTU21D;51367;45.204;38.576;2023-06-10T21:50:12;19.84;75.24
64874;HTU21D;51367;45.204;38.576;2023-06-10T21:52:38;19.85;75.51
64874;HTU21D;51367;45.204;38.576;2023-06-10T21:55:04;19.86;75.74
64874;HTU21D;51367;45.204;38.576;2023-06-10T21:57:30;19.87;75.99
64874;HTU21D;51367;45.204;38.576;2023-06-10T21:59:56;19.87;76.19
64874;HTU21D;51367;45.204;38.576;2023-06-10T22:02:23;19.90;76.39
64874;HTU21D;51367;45.204;38.576;2023-06-10T22:04:49;19.92;76.56
64874;HTU21D;51367;45.204;38.576;2023-06-10T22:07:15;19.92;76.69
64874;HTU21D;51367;45.204;38.576;2023-06-10T22:09:46;19.88;77.02
64874;HTU21D;51367;45.204;38.576;2023-06-10T22:12:15;19.84;77.19
64874;HTU21D;51367;45.204;38.576;2023-06-10T22:14:42;19.82;77.41
64874;HTU21D;51367;45.204;38.576;2023-06-10T22:17:08;19.84;77.58
64874;HTU21D;51367;45.204;38.576;2023-06-10T22:19:34;19.86;77.69
64874;HTU21D;51367;45.204;38.576;2023-06-10T22:22:07;19.87;77.82
64874;HTU21D;51367;45.204;38.576;2023-06-10T22:24:34;19.89;77.79
64874;HTU21D;51367;45.204;38.576;2023-06-10T22:27:01;19.90;77.87
64874;HTU21D;51367;45.204;38.576;2023-06-10T22:29:27;19.90;77.96
64874;HTU21D;51367;45.204;38.576;2023-06-10T22:31:54;19.91;78.04
64874;HTU21D;51367;45.204;38.576;2023-06-10T22:34:20;19.91;78.11
64874;HTU21D;51367;45.204;38.576;2023-06-10T22:36:46;19.91;78.18
64874;HTU21D;51367;45.204;38.576;2023-06-10T22:39:12;19.94;78.24
64874;HTU21D;51367;45.204;38.576;2023-06-10T22:41:42;19.94;78.34
64874;HTU21D;51367;45.204;38.576;2023-06-10T22:44:08;19.91;78.37
64874;HTU21D;51367;45.204;38.576;2023-06-10T22:46:35;19.90;78.44
64874;HTU21D;51367;45.204;38.576;2023-06-10T22:49:01;19.90;78.52
64874;HTU21D;51367;45.204;38.576;2023-06-10T22:51:27;19.88;78.58
64874;HTU21D;51367;45.204;38.576;2023-06-10T22:53:53;19.89;78.63
64874;HTU21D;51367;45.204;38.576;2023-06-10T22:56:19;19.89;78.67
64874;HTU21D;51367;45.204;38.576;2023-06-10T22:58:45;19.87;78.72
64874;HTU21D;51367;45.204;38.576;2023-06-10T23:01:10;19.86;78.77
64874;HTU21D;51367;45.204;38.576;2023-06-10T23:03:36;19.84;78.80
64874;HTU21D;51367;45.204;38.576;2023-06-10T23:06:02;19.82;78.87
64874;HTU21D;51367;45.204;38.576;2023-06-10T23:08:28;19.81;78.95
64874;HTU21D;51367;45.204;38.576;2023-06-10T23:10:54;19.79;78.98
64874;HTU21D;51367;45.204;38.576;2023-06-10T23:13:20;19.79;79.01
64874;HTU21D;51367;45.204;38.576;2023-06-10T23:15:46;19.75;79.06
64874;HTU21D;51367;45.204;38.576;2023-06-10T23:18:12;19.72;79.16
64874;HTU21D;51367;45.204;38.576;2023-06-10T23:20:38;19.72;79.24
64874;HTU21D;51367;45.204;38.576;2023-06-10T23:23:06;19.70;79.30
64874;HTU21D;51367;45.204;38.576;2023-06-10T23:25:32;19.70;79.33
64874;HTU21D;51367;45.204;38.576;2023-06-10T23:28:00;19.70;79.37
64874;HTU21D;51367;45.204;38.576;2023-06-10T23:30:26;19.72;79.42
64874;HTU21D;51367;45.204;38.576;2023-06-10T23:32:52;19.71;79.46
64874;HTU21D;51367;45.204;38.576;2023-06-10T23:35:18;19.71;79.50
64874;HTU21D;51367;45.204;38.576;2023-06-10T23:37:47;19.72;79.57
64874;HTU21D;51367;45.204;38.576;2023-06-10T23:40:14;19.72;79.57
64874;HTU21D;51367;45.204;38.576;2023-06-10T23:42:40;19.73;79.59
64874;HTU21D;51367;45.204;38.576;2023-06-10T23:45:06;19.74;79.61
64874;HTU21D;51367;45.204;38.576;2023-06-10T23:47:32;19.74;79.63
64874;HTU21D;51367;45.204;38.576;2023-06-10T23:49:58;19.75;79.66
64874;HTU21D;51367;45.204;38.576;2023-06-10T23:52:24;19.76;79.69
64874;HTU21D;51367;45.204;38.576;2023-06-10T23:54:50;19.76;79.72
64874;HTU21D;51367;45.204;38.576;2023-06-10T23:57:16;19.77;79.78
64874;HTU21D;51367;45.204;38.576;2023-06-10T23:59:42;19.79;79.82
